Meteo Giornale » Osservazioni meteo Italia » Cagliari-Elmas

ore: 02:50 - Osservazioni Meteo Cagliari-Elmas
Lat. 39° 15' N Lon. 9° 4' E Alt. 4 metri s.l.m.

sereno Europe/Rome

9 °C

Sereno

Temp. 24 Ore

6 °C

20 °C

Nord-Ovest

13 Km/h

Dew point 7 °C

Umidità 87 %

Visibilità  10 Km

Il sole sorge alle ore 06:17

Il sole tramonta alle ore 18:41

Data e Ora Cielo e Fenomeni T °C DP °C Um. % Pres. hPa Vis. km Vento km/h
Oggi h: 02:50 sereno Sereno 9 7 87 1020 10 NO 13
Oggi h: 02:20 sereno Sereno 9 8 93 1021 10 NO 13
Oggi h: 01:50 sereno Sereno 9 8 93 1021 10 NO 14.8
Oggi h: 01:20 sereno Sereno 9 8 93 1021 10 N/NO 13
Oggi h: 00:50 sereno Sereno 10 8 87 1021 10 NO 13
Oggi h: 00:20 sereno Sereno 10 9 93 1021 10 NO 13
Ieri h: 23:50 sereno Sereno 11 9 87 1021 10 NO 13
Ieri h: 23:20 sereno Sereno 12 9 81 1021 10 N 16.7
Ieri h: 22:50 sereno Sereno 12 8 76 1021 10 N 18.5
Ieri h: 22:20 sereno Sereno 12 7 71 1021 10 N 18.5
Ieri h: 21:50 sereno Sereno 12 8 76 1021 10 N/NO 16.7
Ieri h: 21:20 sereno Sereno 13 9 76 1022 10 N/NO 13
Ieri h: 20:50 sereno Sereno 13 9 76 1022 10 N/NO 16.7
Ieri h: 20:20 sereno Sereno 15 8 62 1021 10 N 18.5
Ieri h: 19:50 sereno Sereno 15 7 58 1021 10 N/NO 18.5
Ieri h: 19:20 sereno Sereno 16 12 77 1021 10 N 11.1
Ieri h: 18:50 sereno Sereno 16 12 77 1021 10 NE 9.3
Ieri h: 18:20 sereno Sereno 17 12 72 1021 10 E 13
Ieri h: 17:50 sereno Sereno 18 12 67 1021 10 E/SE 11.1
Ieri h: 17:20 sereno Sereno 18 12 67 1021 10 SE 13
Ieri h: 16:50 sereno Sereno 19 12 63 1021 10 E/SE 13
Ieri h: 16:20 sereno Sereno 19 13 68 1021 10 SE 13
Ieri h: 15:50 sereno Sereno 20 9 49 1021 10 S/SE 13
Ieri h: 15:20 sereno Sereno 19 9 52 1021 10 S 11.1
Ieri h: 14:50 sereno Sereno 20 7 42 1021 10 S 11.1
Ieri h: 14:20 sereno Sereno 20 8 45 1022 10 S 9.3
Ieri h: 13:50 sereno Sereno 20 8 45 1022 10 S 13
Ieri h: 13:20 sereno Sereno 19 10 55 1022 10 S 14.8
Ieri h: 12:50 sereno Sereno 19 9 52 1023 10 S 16.7
Ieri h: 12:20 sereno Sereno 20 5 37 1023 10 SO 9.3
Ieri h: 11:50 sereno Sereno 20 6 39 1023 10 O 9.3
Ieri h: 11:20 sereno Sereno 19 7 45 1024 10 O 7.4
Ieri h: 10:50 sereno Sereno 18 8 51 1024 10 N 5.5
Ieri h: 10:20 sereno Sereno 17 7 51 1024 10 N/NO 9.3
Ieri h: 09:50 sereno Sereno 15 9 67 1024 10 NO 11.1
Ieri h: 09:20 sereno Sereno 15 9 67 1024 10 N/NO 11.1
Ieri h: 08:50 sereno Sereno 12 8 76 1023 10 NO 14.8
Ieri h: 08:20 sereno Sereno 10 7 81 1023 10 N/NO 13
Ieri h: 07:50 sereno Sereno 9 6 81 1023 10 N/NO 14.8
Ieri h: 07:20 sereno Sereno 7 5 87 1023 10 N/NO 13
Ieri h: 06:50 sereno Sereno 6 5 93 1023 9 N/NO 14.8
Ieri h: 06:20 sereno Sereno 6 5 93 1023 9 N/NO 14.8
Ieri h: 05:50 sereno Sereno 6 5 93 1023 10 N/NO 13
Ieri h: 05:20 sereno Sereno 7 6 93 1023 10 N/NO 14.8
Ieri h: 04:50 sereno Sereno 8 7 93 1023 10 NO 13
Ieri h: 04:20 sereno Sereno 7 5 87 1023 10 N/NO 13
Ieri h: 03:50 sereno Sereno 7 6 93 1023 10 NO 11.1
Ieri h: 03:20 sereno Sereno 8 6 87 1023 10 N/NO 11.1
Ieri h: 02:50 sereno Sereno 9 7 87 1022 10 NO 13